Time;durP1;ratioP1;P1;durP2;ratioP2;P2;SDS_P1;SDS_P2;PMS_P1;PMS_P2;Temp;Humidity;BMP_temperature;BMP_pressure;BME280_temperature;BME280_humidity;BME280_pressure;Samples;Min_cycle;Max_cycle;Signal;HPM_P1;HPM_P2
2021/08/03 00:01:40;;;;;;;10.73;4.72;;;15.60;99.90;;;;;;5033549;28;20040;-59
2021/08/03 00:04:14;;;;;;;14.43;5.22;;;15.60;99.90;;;;;;5033835;28;20044;-59
2021/08/03 00:06:56;;;;;;;8.68;4.90;;;15.60;99.90;;;;;;5033867;28;20033;-60
2021/08/03 00:09:22;;;;;;;10.35;5.25;;;15.60;99.90;;;;;;5033314;28;20030;-64
2021/08/03 00:11:48;;;;;;;10.13;4.80;;;15.60;99.90;;;;;;5033501;28;20026;-60
2021/08/03 00:14:14;;;;;;;13.15;5.43;;;15.60;99.90;;;;;;5033333;28;20036;-61
2021/08/03 00:16:42;;;;;;;10.15;5.00;;;15.60;99.90;;;;;;5033844;28;20038;-61
2021/08/03 00:19:08;;;;;;;14.63;6.70;;;15.50;99.90;;;;;;5033125;28;20427;-60
2021/08/03 00:21:35;;;;;;;18.25;8.25;;;15.50;99.90;;;;;;5034363;28;20037;-59
2021/08/03 00:24:01;;;;;;;10.38;4.95;;;15.50;99.90;;;;;;5033650;28;20033;-59
2021/08/03 00:26:27;;;;;;;18.38;9.45;;;15.50;99.90;;;;;;5033743;28;20040;-60
2021/08/03 00:28:53;;;;;;;11.05;5.97;;;15.50;99.90;;;;;;5033197;28;20049;-60
2021/08/03 00:31:21;;;;;;;13.23;5.75;;;15.50;99.90;;;;;;5030944;28;20499;-62
2021/08/03 00:33:49;;;;;;;10.10;5.63;;;15.50;99.90;;;;;;5033839;28;20037;-60
2021/08/03 00:36:16;;;;;;;13.00;5.60;;;15.40;99.90;;;;;;5032285;28;20041;-61
2021/08/03 00:38:42;;;;;;;11.30;5.45;;;15.40;99.90;;;;;;5033796;28;20032;-60
2021/08/03 00:41:19;;;;;;;10.98;5.68;;;15.40;99.90;;;;;;5032009;28;20462;-60
2021/08/03 00:43:45;;;;;;;9.95;5.30;;;15.40;99.90;;;;;;5022321;28;20495;-60
2021/08/03 00:46:11;;;;;;;13.05;5.20;;;15.30;99.90;;;;;;5032044;28;20044;-58
2021/08/03 00:48:36;;;;;;;9.15;4.95;;;15.30;99.90;;;;;;5032614;28;20036;-58
2021/08/03 00:51:02;;;;;;;8.88;4.95;;;15.30;99.90;;;;;;5032135;28;20036;-60
2021/08/03 00:53:30;;;;;;;9.07;4.95;;;15.20;99.90;;;;;;5032541;28;20044;-60
2021/08/03 00:55:57;;;;;;;8.93;4.85;;;15.20;99.90;;;;;;5030008;28;20579;-61
2021/08/03 00:58:23;;;;;;;11.52;5.15;;;15.20;99.90;;;;;;5033020;28;20415;-58
2021/08/03 01:00:48;;;;;;;9.45;5.05;;;15.20;99.90;;;;;;5031502;28;20032;-61
2021/08/03 01:03:14;;;;;;;13.52;5.30;;;15.10;99.90;;;;;;5032594;28;20033;-61
2021/08/03 01:05:59;;;;;;;16.23;5.53;;;15.10;99.90;;;;;;5032343;28;20025;-59
2021/08/03 01:09:06;;;;;;;11.73;5.03;;;15.20;99.90;;;;;;5032619;28;20104;-62
2021/08/03 01:11:47;;;;;;;10.65;4.78;;;15.10;99.90;;;;;;5028601;28;20045;-61
2021/08/03 01:14:19;;;;;;;9.38;4.93;;;15.10;99.90;;;;;;5031224;28;20030;-60
2021/08/03 01:17:07;;;;;;;9.13;5.28;;;15.10;99.90;;;;;;5030862;28;20033;-59
2021/08/03 01:19:39;;;;;;;13.40;5.32;;;15.10;99.90;;;;;;5032490;28;20545;-59
2021/08/03 01:22:55;;;;;;;10.82;4.57;;;15.10;99.90;;;;;;5031893;28;20108;-60
2021/08/03 01:25:44;;;;;;;7.72;4.50;;;15.00;99.90;;;;;;5005301;28;20053;-62
2021/08/03 01:28:28;;;;;;;7.88;4.55;;;15.00;99.90;;;;;;5032318;28;20069;-59
2021/08/03 01:31:07;;;;;;;11.48;5.18;;;14.90;99.90;;;;;;5030049;28;20142;-59
2021/08/03 01:33:37;;;;;;;7.70;4.78;;;14.90;99.90;;;;;;5032065;28;20107;-61
2021/08/03 01:36:03;;;;;;;9.93;4.72;;;14.90;99.90;;;;;;5031531;28;20038;-59
2021/08/03 01:38:31;;;;;;;13.70;5.88;;;15.00;99.90;;;;;;5032075;28;20110;-59
2021/08/03 01:41:02;;;;;;;10.70;5.15;;;15.00;99.90;;;;;;5031291;28;20026;-60
2021/08/03 01:43:29;;;;;;;8.07;5.25;;;15.00;99.90;;;;;;5029455;28;20392;-59
2021/08/03 01:45:56;;;;;;;10.23;5.55;;;15.00;99.90;;;;;;5030557;28;20407;-60
2021/08/03 01:48:24;;;;;;;10.00;5.38;;;15.00;99.90;;;;;;5032373;28;20025;-59
2021/08/03 01:50:53;;;;;;;11.48;5.65;;;15.00;99.90;;;;;;5031472;28;20029;-60
2021/08/03 01:53:22;;;;;;;8.90;5.20;;;15.00;99.90;;;;;;5029539;28;20033;-60
2021/08/03 01:55:48;;;;;;;11.00;5.05;;;15.00;99.90;;;;;;5030314;28;20116;-60
2021/08/03 01:58:15;;;;;;;10.73;5.45;;;15.10;99.90;;;;;;5032063;28;20159;-59
2021/08/03 02:00:45;;;;;;;10.15;5.70;;;15.10;99.90;;;;;;5029883;28;20030;-60
2021/08/03 02:03:11;;;;;;;9.57;5.00;;;15.20;99.90;;;;;;5031989;28;20043;-60
2021/08/03 02:05:43;;;;;;;7.78;4.97;;;15.10;99.90;;;;;;5030265;28;20088;-60
2021/08/03 02:08:10;;;;;;;12.23;5.63;;;15.20;99.90;;;;;;5031703;28;20087;-61
2021/08/03 02:10:38;;;;;;;12.65;5.03;;;15.20;99.90;;;;;;5030408;28;20029;-60
2021/08/03 02:13:05;;;;;;;7.78;4.63;;;15.20;99.90;;;;;;5031208;28;20038;-60
2021/08/03 02:15:31;;;;;;;9.10;5.10;;;15.20;99.90;;;;;;5030828;28;20036;-61
2021/08/03 02:17:57;;;;;;;11.75;5.30;;;15.20;99.90;;;;;;5030415;28;20087;-59
2021/08/03 02:20:23;;;;;;;9.88;5.57;;;15.20;99.90;;;;;;5030635;28;20080;-59
2021/08/03 02:22:49;;;;;;;12.73;5.80;;;15.20;99.90;;;;;;5031204;28;20053;-60
2021/08/03 02:25:15;;;;;;;9.93;5.10;;;15.20;99.90;;;;;;5030744;28;20095;-61
2021/08/03 02:27:41;;;;;;;12.60;5.30;;;15.20;99.90;;;;;;5030783;28;20053;-60
2021/08/03 02:30:09;;;;;;;11.25;5.30;;;15.20;99.90;;;;;;5029191;28;20029;-62
2021/08/03 02:33:13;;;;;;;11.23;5.03;;;15.20;99.90;;;;;;5030778;28;20033;-60
2021/08/03 02:35:55;;;;;;;14.70;5.40;;;15.20;99.90;;;;;;5030533;28;20037;-61
2021/08/03 02:38:25;;;;;;;9.38;5.45;;;15.30;99.90;;;;;;5017821;28;20053;-60
2021/08/03 02:40:53;;;;;;;10.23;5.32;;;15.30;99.90;;;;;;5029639;28;20095;-60
2021/08/03 02:43:22;;;;;;;9.35;5.68;;;15.30;99.90;;;;;;5030897;28;20026;-60
2021/08/03 02:45:49;;;;;;;12.70;5.10;;;15.30;99.90;;;;;;5029475;28;20029;-62
2021/08/03 02:48:16;;;;;;;12.57;5.28;;;15.30;99.90;;;;;;5029893;28;20029;-61
2021/08/03 02:50:43;;;;;;;10.68;5.05;;;15.30;99.90;;;;;;5029992;28;20053;-59
2021/08/03 02:53:24;;;;;;;10.77;5.43;;;15.40;99.90;;;;;;5030941;28;20376;-60
2021/08/03 02:56:12;;;;;;;9.13;5.15;;;15.40;99.90;;;;;;5029905;28;20041;-62
2021/08/03 02:59:02;;;;;;;28.55;11.55;;;15.40;99.90;;;;;;5018273;28;20046;-61
2021/08/03 03:01:29;;;;;;;13.73;5.80;;;15.40;99.90;;;;;;5029399;28;20068;-62
2021/08/03 03:04:06;;;;;;;10.13;5.40;;;15.40;99.90;;;;;;5030746;28;20040;-61
2021/08/03 03:06:34;;;;;;;10.90;5.00;;;15.40;99.90;;;;;;5029965;28;20032;-61
2021/08/03 03:09:02;;;;;;;9.07;5.18;;;15.40;99.90;;;;;;5030200;28;20482;-61
2021/08/03 03:11:30;;;;;;;11.38;5.30;;;15.40;99.90;;;;;;5029503;28;20033;-60
2021/08/03 03:13:58;;;;;;;10.55;5.32;;;15.40;99.90;;;;;;5031041;28;20025;-62
2021/08/03 03:16:26;;;;;;;10.18;5.18;;;15.40;99.90;;;;;;5029909;28;20037;-61
2021/08/03 03:18:53;;;;;;;12.85;5.50;;;15.30;99.90;;;;;;5034094;28;20037;-60
2021/08/03 03:21:24;;;;;;;13.07;5.70;;;15.30;99.90;;;;;;5034114;28;20018;-58
2021/08/03 03:23:53;;;;;;;10.38;4.80;;;15.40;99.90;;;;;;5034793;28;20476;-60
2021/08/03 03:26:23;;;;;;;9.25;5.60;;;15.40;99.90;;;;;;5034247;28;20068;-60
2021/08/03 03:28:50;;;;;;;11.55;5.95;;;15.40;99.90;;;;;;5033286;28;20041;-59
2021/08/03 03:31:17;;;;;;;12.57;6.03;;;15.40;99.90;;;;;;5033191;28;20057;-62
2021/08/03 03:33:44;;;;;;;11.60;6.13;;;15.50;99.90;;;;;;5034300;28;20033;-60
2021/08/03 03:36:12;;;;;;;12.57;6.07;;;15.40;99.90;;;;;;5033784;28;20586;-60
2021/08/03 03:38:39;;;;;;;11.40;6.32;;;15.40;99.90;;;;;;5023360;28;20041;-59
2021/08/03 03:41:08;;;;;;;9.52;5.82;;;15.40;99.90;;;;;;5033310;28;20490;-58
2021/08/03 03:43:34;;;;;;;8.25;5.38;;;15.40;99.90;;;;;;5030127;28;20064;-59
2021/08/03 03:46:05;;;;;;;10.88;5.93;;;15.30;99.90;;;;;;5033774;28;20069;-62
2021/08/03 03:48:35;;;;;;;12.75;5.80;;;15.40;99.90;;;;;;5026197;28;20480;-61
2021/08/03 03:51:03;;;;;;;13.18;5.70;;;15.30;99.90;;;;;;5029565;28;20108;-61
2021/08/03 03:53:39;;;;;;;9.63;5.93;;;15.30;99.90;;;;;;5030845;28;20026;-59
2021/08/03 03:56:07;;;;;;;12.55;5.90;;;15.20;99.90;;;;;;5033334;28;20045;-60
2021/08/03 03:58:39;;;;;;;11.32;5.72;;;15.10;99.90;;;;;;5034412;28;20045;-59
2021/08/03 04:01:06;;;;;;;12.50;5.95;;;15.10;99.90;;;;;;5032672;28;20047;-60
2021/08/03 04:03:36;;;;;;;8.50;5.50;;;15.20;99.90;;;;;;5034171;28;20038;-59
2021/08/03 04:06:03;;;;;;;11.02;5.72;;;15.20;99.90;;;;;;5033129;28;20032;-59
2021/08/03 04:08:30;;;;;;;14.40;6.00;;;15.20;99.90;;;;;;5033380;28;20029;-58
2021/08/03 04:11:01;;;;;;;9.75;5.25;;;15.10;99.90;;;;;;5033038;28;20057;-59
2021/08/03 04:13:27;;;;;;;15.20;5.70;;;15.00;99.90;;;;;;5033346;28;20399;-59
2021/08/03 04:15:53;;;;;;;12.75;5.63;;;15.00;99.90;;;;;;5031885;28;20837;-60
2021/08/03 04:18:18;;;;;;;9.73;5.40;;;14.90;99.90;;;;;;5033323;28;20424;-61
2021/08/03 04:20:44;;;;;;;9.57;5.80;;;14.90;99.90;;;;;;5032824;28;20029;-59
2021/08/03 04:23:10;;;;;;;13.20;5.88;;;14.90;99.90;;;;;;5033458;28;20445;-61
2021/08/03 04:25:35;;;;;;;8.90;5.80;;;14.80;99.90;;;;;;5033477;28;20033;-58
2021/08/03 04:28:01;;;;;;;21.38;5.85;;;14.80;99.90;;;;;;5033017;28;20049;-59
2021/08/03 04:30:27;;;;;;;11.65;6.03;;;14.80;99.90;;;;;;5031999;28;20036;-60
2021/08/03 04:32:53;;;;;;;12.55;6.10;;;14.80;99.90;;;;;;5032542;28;20480;-60
2021/08/03 04:35:20;;;;;;;14.85;6.00;;;14.80;99.90;;;;;;5033132;28;20037;-59
2021/08/03 04:37:47;;;;;;;15.15;5.53;;;14.80;99.90;;;;;;5033060;28;20183;-59
2021/08/03 04:40:16;;;;;;;11.18;5.15;;;14.80;99.90;;;;;;5032378;28;20040;-59
2021/08/03 04:42:42;;;;;;;14.57;6.05;;;14.80;99.90;;;;;;5024987;28;20029;-58
2021/08/03 04:45:09;;;;;;;12.82;5.47;;;14.70;99.90;;;;;;5033126;28;20076;-59
2021/08/03 04:47:43;;;;;;;9.70;5.25;;;14.70;99.90;;;;;;5032451;28;20040;-60
2021/08/03 04:50:17;;;;;;;8.73;5.22;;;14.80;99.90;;;;;;5034413;28;20415;-61
2021/08/03 04:52:43;;;;;;;10.77;5.57;;;14.80;99.90;;;;;;5032110;28;20099;-59
2021/08/03 04:55:10;;;;;;;14.20;5.60;;;14.80;99.90;;;;;;5033329;28;20160;-58
2021/08/03 04:57:36;;;;;;;17.77;5.90;;;14.80;99.90;;;;;;5031564;28;20037;-60
2021/08/03 05:00:04;;;;;;;13.63;5.40;;;14.80;99.90;;;;;;5032670;28;20030;-57
2021/08/03 05:02:29;;;;;;;13.77;6.18;;;14.90;99.90;;;;;;5031909;28;20037;-59
2021/08/03 05:04:55;;;;;;;15.35;5.85;;;15.00;99.90;;;;;;5033081;28;20030;-62
2021/08/03 05:07:21;;;;;;;12.20;5.65;;;15.00;99.90;;;;;;5032063;28;20049;-59
2021/08/03 05:09:46;;;;;;;21.58;6.60;;;14.90;99.90;;;;;;5032536;28;20104;-60
2021/08/03 05:12:12;;;;;;;14.57;6.82;;;14.90;99.90;;;;;;5031749;28;20480;-59
2021/08/03 05:14:38;;;;;;;19.00;6.00;;;14.80;99.90;;;;;;5031918;28;20021;-59
2021/08/03 05:17:04;;;;;;;10.35;5.85;;;14.90;99.90;;;;;;5030968;28;20405;-60
2021/08/03 05:19:29;;;;;;;41.13;17.92;;;15.00;99.90;;;;;;5013547;28;20044;-57
2021/08/03 05:21:55;;;;;;;16.45;6.43;;;15.10;99.90;;;;;;5031331;28;20148;-60
2021/08/03 05:24:25;;;;;;;17.30;5.78;;;15.20;99.90;;;;;;5032381;28;20029;-60
2021/08/03 05:26:53;;;;;;;10.05;5.60;;;15.10;99.90;;;;;;5031198;28;20025;-60
2021/08/03 05:29:18;;;;;;;15.13;7.30;;;15.10;99.90;;;;;;5031502;28;20021;-60
2021/08/03 05:31:44;;;;;;;13.35;6.45;;;15.20;99.90;;;;;;5028584;28;20025;-59
2021/08/03 05:34:10;;;;;;;10.05;5.82;;;15.30;99.90;;;;;;5032779;28;20037;-60
2021/08/03 05:36:36;;;;;;;18.45;6.05;;;15.40;99.90;;;;;;5021438;28;20042;-60
2021/08/03 05:39:01;;;;;;;119.65;14.45;;;15.30;99.90;;;;;;5031685;28;20475;-59
2021/08/03 05:41:27;;;;;;;18.08;6.80;;;15.30;99.90;;;;;;5030587;28;20034;-61
2021/08/03 05:43:53;;;;;;;21.20;6.53;;;15.40;99.90;;;;;;5032243;28;20387;-61
2021/08/03 05:46:18;;;;;;;10.68;5.63;;;15.50;99.90;;;;;;5030642;28;20401;-61
2021/08/03 05:48:44;;;;;;;13.10;5.35;;;15.50;99.90;;;;;;5032169;28;20037;-59
2021/08/03 05:51:10;;;;;;;17.33;5.60;;;15.60;99.90;;;;;;5024789;28;20037;-61
2021/08/03 05:53:35;;;;;;;14.73;5.38;;;15.60;99.90;;;;;;5018834;28;20105;-59
2021/08/03 05:56:01;;;;;;;11.95;5.43;;;15.70;99.90;;;;;;5031489;28;20045;-60
2021/08/03 05:58:27;;;;;;;6.07;4.60;;;15.80;99.90;;;;;;5031394;28;20033;-59
2021/08/03 06:00:52;;;;;;;9.07;4.40;;;15.80;99.90;;;;;;5031300;28;20056;-61
2021/08/03 06:03:18;;;;;;;14.27;4.63;;;15.90;99.90;;;;;;5031087;28;20105;-63
2021/08/03 06:05:45;;;;;;;11.73;5.05;;;15.90;99.90;;;;;;5031459;28;20048;-60
2021/08/03 06:08:11;;;;;;;11.57;4.30;;;15.90;99.90;;;;;;5031400;28;20057;-61
2021/08/03 06:10:38;;;;;;;9.00;4.32;;;16.00;99.90;;;;;;5031277;28;20476;-61
2021/08/03 06:13:06;;;;;;;11.57;4.50;;;16.10;99.90;;;;;;5030374;28;20096;-59
2021/08/03 06:15:38;;;;;;;7.97;3.92;;;16.10;99.90;;;;;;5031055;28;20112;-60
2021/08/03 06:18:12;;;;;;;12.88;4.05;;;16.20;99.90;;;;;;5030523;28;20040;-60
2021/08/03 06:20:40;;;;;;;9.18;3.75;;;16.30;99.90;;;;;;5031135;28;20032;-59
2021/08/03 06:23:10;;;;;;;9.27;3.70;;;16.30;99.90;;;;;;5030270;28;20033;-62
2021/08/03 06:25:39;;;;;;;43.72;6.00;;;16.50;99.90;;;;;;5031496;28;20033;-62
2021/08/03 06:28:06;;;;;;;11.77;3.35;;;16.50;99.90;;;;;;5030710;28;20060;-60
2021/08/03 06:30:35;;;;;;;10.48;3.08;;;16.60;99.90;;;;;;5030385;28;20029;-59
2021/08/03 06:33:01;;;;;;;8.38;3.53;;;16.60;99.90;;;;;;5029976;28;20115;-61
2021/08/03 06:35:28;;;;;;;8.80;3.30;;;16.60;99.90;;;;;;5031120;28;20033;-60
2021/08/03 06:37:54;;;;;;;11.10;3.45;;;16.80;99.90;;;;;;5029634;28;20057;-60
2021/08/03 06:40:19;;;;;;;8.52;3.10;;;16.90;99.90;;;;;;5031035;28;20472;-59
2021/08/03 06:42:56;;;;;;;9.15;3.00;;;17.00;99.90;;;;;;5029903;28;20053;-59
2021/08/03 06:45:30;;;;;;;8.07;3.53;;;17.10;99.90;;;;;;5020549;28;20036;-59
2021/08/03 06:48:06;;;;;;;8.60;3.30;;;17.10;99.90;;;;;;5030166;28;20036;-59
2021/08/03 06:50:38;;;;;;;10.23;3.47;;;17.20;99.90;;;;;;5029709;28;20038;-61
2021/08/03 06:53:06;;;;;;;15.05;3.50;;;17.20;99.90;;;;;;5025293;28;20033;-60
2021/08/03 06:55:33;;;;;;;9.60;3.60;;;17.30;99.90;;;;;;5029887;28;20090;-59
2021/08/03 06:58:02;;;;;;;10.98;3.75;;;17.40;99.90;;;;;;5024114;28;20163;-59
2021/08/03 07:00:39;;;;;;;6.78;2.80;;;17.40;99.90;;;;;;5030613;28;20113;-59
2021/08/03 07:03:08;;;;;;;9.27;3.03;;;17.30;99.90;;;;;;5028732;28;20050;-60
2021/08/03 07:05:51;;;;;;;13.88;3.05;;;17.30;99.90;;;;;;5030339;28;20506;-58
2021/08/03 07:08:18;;;;;;;17.13;4.00;;;17.20;99.90;;;;;;5017955;28;20014;-60
2021/08/03 07:10:45;;;;;;;11.90;3.25;;;17.30;99.90;;;;;;5030594;28;20116;-60
2021/08/03 07:13:13;;;;;;;9.30;2.90;;;17.30;99.90;;;;;;5015959;28;20037;-60
2021/08/03 07:15:39;;;;;;;6.35;2.90;;;17.20;99.90;;;;;;5023086;28;20021;-59
2021/08/03 07:18:07;;;;;;;10.68;2.95;;;17.30;99.90;;;;;;5029584;28;20116;-59
2021/08/03 07:20:34;;;;;;;10.85;3.83;;;17.30;99.90;;;;;;5029599;28;20422;-60
2021/08/03 07:23:01;;;;;;;6.97;3.10;;;17.40;99.90;;;;;;5029837;28;20096;-59
2021/08/03 07:25:27;;;;;;;10.55;3.28;;;17.40;99.90;;;;;;5030842;28;20037;-58
2021/08/03 07:27:53;;;;;;;6.78;2.90;;;17.40;99.90;;;;;;5024790;28;20064;-58
2021/08/03 07:30:19;;;;;;;9.93;3.13;;;17.50;99.90;;;;;;5027951;28;20022;-59
2021/08/03 07:32:44;;;;;;;4.93;2.67;;;17.60;99.90;;;;;;5022659;28;20038;-61
2021/08/03 07:35:10;;;;;;;7.60;2.65;;;17.50;99.90;;;;;;5030506;28;20026;-61
2021/08/03 07:37:37;;;;;;;8.25;4.03;;;17.60;99.90;;;;;;5029793;28;20037;-58
2021/08/03 07:40:04;;;;;;;9.65;2.90;;;17.60;99.90;;;;;;5030469;28;20035;-58
2021/08/03 07:42:30;;;;;;;4.82;2.22;;;17.70;99.90;;;;;;5029385;28;20487;-60
2021/08/03 07:44:55;;;;;;;8.07;2.65;;;17.70;99.90;;;;;;5030212;28;20112;-60
2021/08/03 07:47:21;;;;;;;5.80;2.72;;;17.80;99.90;;;;;;5029623;28;20141;-60
2021/08/03 07:49:48;;;;;;;8.55;2.65;;;18.10;99.90;;;;;;5032415;28;20022;-59
2021/08/03 07:52:14;;;;;;;4.03;2.33;;;18.30;99.90;;;;;;5029573;28;20103;-62
2021/08/03 07:54:39;;;;;;;5.15;2.35;;;18.50;99.90;;;;;;5025961;28;20085;-61
2021/08/03 07:57:05;;;;;;;4.63;2.63;;;18.60;99.90;;;;;;5034980;28;20112;-62
2021/08/03 07:59:31;;;;;;;25.90;11.60;;;18.80;99.90;;;;;;5028012;28;20033;-60
2021/08/03 08:01:57;;;;;;;9.57;3.05;;;19.10;99.90;;;;;;5019784;28;20025;-59
2021/08/03 08:04:23;;;;;;;8.65;2.97;;;19.30;99.90;;;;;;5031387;28;20389;-60
2021/08/03 08:06:49;;;;;;;10.75;2.92;;;19.30;99.90;;;;;;5032730;28;20037;-60
2021/08/03 08:09:14;;;;;;;8.15;2.85;;;19.40;99.90;;;;;;5033281;28;20039;-61
2021/08/03 08:11:40;;;;;;;6.75;2.67;;;19.40;99.90;;;;;;5032922;28;20399;-60
2021/08/03 08:14:06;;;;;;;9.13;3.00;;;19.50;99.90;;;;;;5032968;28;20026;-59
2021/08/03 08:16:31;;;;;;;6.57;2.80;;;19.70;99.90;;;;;;5033809;28;20064;-60
2021/08/03 08:18:57;;;;;;;14.63;3.28;;;20.10;99.90;;;;;;5032244;28;20028;-60
2021/08/03 08:21:24;;;;;;;8.68;2.83;;;20.30;99.90;;;;;;5033248;28;20483;-59
2021/08/03 08:23:50;;;;;;;5.50;2.60;;;20.70;99.90;;;;;;5032074;28;20034;-61
2021/08/03 08:26:16;;;;;;;9.45;2.60;;;20.80;99.90;;;;;;5032553;28;20041;-62
2021/08/03 08:28:42;;;;;;;7.13;2.70;;;20.70;99.90;;;;;;5027992;28;20064;-62
2021/08/03 08:31:07;;;;;;;11.65;2.70;;;20.50;99.90;;;;;;5032995;28;20029;-61
2021/08/03 08:33:33;;;;;;;7.85;2.53;;;20.60;99.90;;;;;;5031898;28;20045;-59
2021/08/03 08:35:59;;;;;;;7.82;2.90;;;20.60;99.90;;;;;;5033206;28;20365;-59
2021/08/03 08:38:24;;;;;;;8.95;2.63;;;20.60;99.90;;;;;;5031754;28;20041;-58
2021/08/03 08:40:54;;;;;;;6.18;2.50;;;20.70;99.90;;;;;;5033108;28;20028;-61
2021/08/03 08:43:19;;;;;;;5.45;2.30;;;20.80;99.90;;;;;;5032298;28;20026;-60
2021/08/03 08:45:46;;;;;;;8.23;2.60;;;20.90;99.90;;;;;;5031922;28;20120;-61
2021/08/03 08:48:13;;;;;;;13.70;3.58;;;20.70;99.90;;;;;;5030452;28;20064;-59
2021/08/03 08:50:39;;;;;;;5.47;2.30;;;21.00;99.90;;;;;;5033001;28;20448;-62
2021/08/03 08:53:05;;;;;;;7.03;3.22;;;21.30;99.90;;;;;;5031853;28;20091;-61
2021/08/03 08:55:30;;;;;;;7.35;2.85;;;21.50;99.90;;;;;;5032980;28;20420;-61
2021/08/03 08:57:56;;;;;;;6.43;2.78;;;21.90;99.90;;;;;;5027751;28;20061;-63
2021/08/03 09:00:23;;;;;;;6.65;2.78;;;22.20;99.90;;;;;;5032690;28;20029;-62
2021/08/03 09:02:52;;;;;;;7.22;3.05;;;22.50;99.90;;;;;;5032098;28;20537;-60
2021/08/03 09:05:33;;;;;;;9.38;3.08;;;22.80;99.90;;;;;;5032279;28;20026;-61
2021/08/03 09:08:01;;;;;;;5.22;2.97;;;22.90;99.90;;;;;;5030513;28;20079;-61
2021/08/03 09:10:31;;;;;;;8.23;3.15;;;22.70;99.90;;;;;;5032970;28;20029;-61
2021/08/03 09:13:08;;;;;;;7.80;3.30;;;22.50;99.90;;;;;;5031881;28;20121;-61
2021/08/03 09:15:36;;;;;;;8.88;3.63;;;22.40;99.90;;;;;;5031058;28;20109;-59
2021/08/03 09:18:10;;;;;;;16.65;4.03;;;22.40;99.90;;;;;;5031223;28;20033;-60
2021/08/03 09:20:37;;;;;;;7.22;3.22;;;22.30;99.90;;;;;;5032307;28;20048;-61
2021/08/03 09:23:03;;;;;;;11.75;4.18;;;22.40;99.90;;;;;;5032039;28;20087;-60
2021/08/03 09:25:29;;;;;;;7.63;3.72;;;22.50;99.90;;;;;;5029261;28;20037;-59
2021/08/03 09:28:09;;;;;;;8.18;3.35;;;22.80;99.90;;;;;;5030377;28;20045;-60
2021/08/03 09:30:37;;;;;;;11.50;3.90;;;22.70;99.90;;;;;;5022370;28;20045;-59
2021/08/03 09:33:06;;;;;;;10.98;3.88;;;22.10;99.90;;;;;;5031112;28;20076;-60
2021/08/03 09:35:34;;;;;;;11.43;3.28;;;22.10;99.90;;;;;;5033249;28;20060;-60
2021/08/03 09:38:00;;;;;;;7.55;3.40;;;22.00;99.90;;;;;;5028091;28;20049;-58
2021/08/03 09:40:34;;;;;;;8.43;4.28;;;21.50;99.90;;;;;;5031558;28;20540;-62
2021/08/03 09:43:12;;;;;;;8.77;3.78;;;21.30;99.90;;;;;;5031313;28;20045;-60
2021/08/03 09:45:44;;;;;;;11.43;3.72;;;21.20;99.90;;;;;;5030668;28;20403;-61
2021/08/03 09:48:21;;;;;;;9.75;3.58;;;21.10;99.90;;;;;;5029044;28;20032;-60
2021/08/03 09:50:58;;;;;;;12.48;3.53;;;21.00;99.90;;;;;;5027508;28;20095;-59
2021/08/03 09:54:02;;;;;;;7.35;3.22;;;21.00;99.90;;;;;;5031339;28;20030;-59
2021/08/03 09:56:27;;;;;;;9.05;3.13;;;21.00;99.90;;;;;;5002354;28;20104;-61
2021/08/03 09:59:00;;;;;;;9.32;3.45;;;21.00;99.90;;;;;;5021087;28;20057;-59
2021/08/03 10:01:38;;;;;;;9.77;3.15;;;20.90;99.90;;;;;;5031626;28;20048;-63
2021/08/03 10:04:07;;;;;;;10.05;3.25;;;20.80;99.90;;;;;;5030820;28;20025;-60
2021/08/03 10:06:34;;;;;;;7.47;3.80;;;20.70;99.90;;;;;;5019409;28;20128;-61
2021/08/03 10:09:00;;;;;;;11.48;3.60;;;20.60;99.90;;;;;;5030296;28;20040;-60
2021/08/03 10:11:27;;;;;;;11.98;5.22;;;20.70;99.90;;;;;;5031350;28;20395;-58
2021/08/03 10:13:53;;;;;;;7.70;3.63;;;21.20;99.90;;;;;;5030246;28;20057;-62
2021/08/03 10:16:20;;;;;;;8.07;3.50;;;21.50;99.90;;;;;;5030064;28;20033;-62
2021/08/03 10:18:54;;;;;;;7.65;3.42;;;21.40;99.90;;;;;;5031098;28;20075;-61
2021/08/03 10:21:28;;;;;;;7.57;3.42;;;21.40;99.90;;;;;;5030618;28;20498;-59
2021/08/03 10:24:16;;;;;;;6.70;3.13;;;22.00;99.90;;;;;;5030412;28;20082;-59
2021/08/03 10:27:00;;;;;;;10.88;3.13;;;22.50;99.90;;;;;;5030316;28;20507;-61
2021/08/03 10:29:26;;;;;;;5.35;2.80;;;22.80;99.90;;;;;;5029257;28;20526;-58
2021/08/03 10:31:53;;;;;;;6.45;3.30;;;23.10;99.90;;;;;;5026383;28;20025;-59
2021/08/03 10:34:43;;;;;;;8.35;2.88;;;23.10;99.90;;;;;;5030325;28;20025;-61
2021/08/03 10:37:13;;;;;;;8.27;2.80;;;23.10;99.90;;;;;;5029366;28;20471;-60
2021/08/03 10:39:57;;;;;;;5.63;2.75;;;23.30;99.90;;;;;;5030142;28;20034;-60
2021/08/03 10:42:24;;;;;;;9.82;3.03;;;23.70;99.90;;;;;;5030982;28;20498;-60
2021/08/03 10:44:53;;;;;;;6.88;2.80;;;23.60;99.90;;;;;;5029494;28;20025;-59
2021/08/03 10:47:33;;;;;;;6.15;3.00;;;23.50;99.90;;;;;;5029480;28;20476;-60
2021/08/03 10:50:02;;;;;;;10.07;3.20;;;23.10;99.90;;;;;;5028785;28;20136;-61
2021/08/03 10:52:46;;;;;;;7.38;3.00;;;23.10;99.90;;;;;;5030979;28;20112;-66
2021/08/03 10:55:41;;;;;;;7.72;3.33;;;23.40;99.90;;;;;;5028322;28;20033;-62
2021/08/03 10:58:09;;;;;;;8.88;4.80;;;23.40;99.90;;;;;;5026617;28;20045;-61
2021/08/03 11:00:49;;;;;;;8.63;3.08;;;23.40;99.90;;;;;;5028691;28;20101;-60
2021/08/03 11:03:36;;;;;;;9.00;2.78;;;23.20;99.90;;;;;;5018642;28;20029;-62
2021/08/03 11:06:09;;;;;;;9.80;3.45;;;23.10;99.90;;;;;;5030844;28;20079;-60
2021/08/03 11:08:44;;;;;;;8.63;3.22;;;23.10;99.90;;;;;;5028521;28;20033;-61
2021/08/03 11:11:29;;;;;;;10.98;3.35;;;22.80;99.90;;;;;;5030228;28;20496;-59
2021/08/03 11:13:56;;;;;;;9.38;3.42;;;23.00;99.90;;;;;;5031166;28;20053;-62
2021/08/03 11:16:22;;;;;;;4.65;3.47;;;23.20;99.90;;;;;;5034778;28;20503;-61
2021/08/03 11:18:52;;;;;;;8.57;3.47;;;23.10;99.90;;;;;;5028821;28;20068;-60
2021/08/03 11:21:20;;;;;;;7.03;3.55;;;23.10;99.90;;;;;;5030127;28;20026;-59
2021/08/03 11:24:06;;;;;;;6.00;3.58;;;23.30;99.90;;;;;;5029562;28;20037;-59
2021/08/03 11:26:55;;;;;;;9.55;3.33;;;23.10;99.90;;;;;;5030468;28;20137;-61
2021/08/03 11:29:26;;;;;;;6.70;3.28;;;23.20;99.90;;;;;;5033021;28;20074;-59
2021/08/03 11:31:51;;;;;;;6.70;3.15;;;23.50;99.90;;;;;;5029618;28;20030;-63
2021/08/03 11:34:22;;;;;;;5.65;3.25;;;23.70;99.90;;;;;;5029213;28;20017;-59
2021/08/03 11:36:56;;;;;;;7.95;2.75;;;23.70;99.90;;;;;;5028626;28;20052;-60
2021/08/03 11:39:31;;;;;;;9.23;2.70;;;23.60;99.90;;;;;;5023658;28;20049;-61
2021/08/03 11:41:57;;;;;;;6.05;2.80;;;23.40;99.90;;;;;;5033887;28;20104;-60
2021/08/03 11:44:23;;;;;;;4.00;2.28;;;23.40;99.90;;;;;;5033525;28;20025;-62
2021/08/03 11:47:00;;;;;;;5.57;2.58;;;23.30;99.90;;;;;;5034287;28;20468;-59
2021/08/03 11:49:27;;;;;;;11.32;2.85;;;23.10;99.90;;;;;;5032416;28;20094;-58
2021/08/03 11:52:03;;;;;;;7.72;3.28;;;23.20;99.90;;;;;;5032898;28;20395;-61
2021/08/03 11:54:29;;;;;;;7.15;2.90;;;23.40;99.90;;;;;;5033791;28;20533;-61
2021/08/03 11:56:54;;;;;;;7.00;2.55;;;23.70;99.90;;;;;;5026786;28;20045;-60
2021/08/03 11:59:32;;;;;;;5.22;2.50;;;23.70;99.90;;;;;;5032803;28;20082;-60
2021/08/03 12:01:58;;;;;;;10.80;5.65;;;23.80;99.90;;;;;;5033128;28;20545;-60
2021/08/03 12:04:23;;;;;;;8.15;3.55;;;24.10;99.90;;;;;;5032413;28;20065;-61
2021/08/03 12:06:51;;;;;;;9.25;2.60;;;24.30;99.90;;;;;;5034493;28;20115;-59
2021/08/03 12:09:18;;;;;;;9.65;3.42;;;24.50;99.90;;;;;;5032548;28;20030;-59
2021/08/03 12:11:45;;;;;;;9.23;3.20;;;24.00;99.90;;;;;;5032823;28;20038;-60
2021/08/03 12:14:17;;;;;;;5.43;2.45;;;24.00;99.90;;;;;;5032800;28;20032;-63
2021/08/03 12:16:43;;;;;;;6.32;3.20;;;23.90;99.90;;;;;;5033445;28;20041;-59
2021/08/03 12:19:31;;;;;;;9.27;3.60;;;24.00;99.90;;;;;;5032756;28;20030;-60
2021/08/03 12:21:58;;;;;;;5.47;2.97;;;23.80;99.90;;;;;;5027481;28;20037;-59
2021/08/03 12:24:24;;;;;;;4.65;2.55;;;23.60;99.90;;;;;;5032040;28;20468;-60
2021/08/03 12:27:13;;;;;;;7.20;2.85;;;23.70;99.90;;;;;;5032819;28;20061;-59
2021/08/03 12:29:39;;;;;;;5.88;2.83;;;23.80;99.90;;;;;;5031211;28;20091;-59
2021/08/03 12:32:05;;;;;;;5.55;2.60;;;24.00;99.90;;;;;;5033934;28;20387;-59
2021/08/03 12:34:36;;;;;;;8.05;2.58;;;23.80;99.90;;;;;;5031400;28;20395;-61
2021/08/03 12:37:03;;;;;;;8.07;2.60;;;23.80;99.90;;;;;;5024500;28;20025;-59
2021/08/03 12:39:37;;;;;;;7.43;3.00;;;24.10;99.90;;;;;;5025190;28;20033;-60
2021/08/03 12:42:19;;;;;;;6.07;2.55;;;24.30;99.90;;;;;;5031876;28;20048;-59
2021/08/03 12:44:53;;;;;;;6.93;2.83;;;24.40;99.90;;;;;;5031448;28;20025;-60
2021/08/03 12:47:28;;;;;;;7.97;2.85;;;24.20;99.90;;;;;;5033391;28;20075;-60
2021/08/03 12:50:04;;;;;;;;;;;24.10;99.90;;;;;;5031789;28;20497;-60
2021/08/03 12:52:30;;;;;;;5.68;2.38;;;24.10;99.90;;;;;;5027151;28;20437;-62
2021/08/03 12:55:02;;;;;;;7.63;2.40;;;24.00;99.90;;;;;;5029977;28;20059;-60
2021/08/03 12:57:53;;;;;;;3.88;2.30;;;24.10;99.90;;;;;;5023567;28;20462;-59